sensor_id;sensor_type;location;lat;lon;timestamp;P1;durP1;ratioP1;P2;durP2;ratioP2
74243;SDS011;62600;55.732;37.662;2022-08-19T00:01:42;6.10;;;4.45;;
74243;SDS011;62600;55.732;37.662;2022-08-19T00:04:11;7.18;;;4.60;;
74243;SDS011;62600;55.732;37.662;2022-08-19T00:06:38;12.27;;;4.63;;
74243;SDS011;62600;55.732;37.662;2022-08-19T00:09:07;7.25;;;4.00;;
74243;SDS011;62600;55.732;37.662;2022-08-19T00:11:34;6.13;;;4.13;;
74243;SDS011;62600;55.732;37.662;2022-08-19T00:14:02;6.35;;;4.10;;
74243;SDS011;62600;55.732;37.662;2022-08-19T00:16:29;8.00;;;4.35;;
74243;SDS011;62600;55.732;37.662;2022-08-19T00:18:55;6.00;;;4.30;;
74243;SDS011;62600;55.732;37.662;2022-08-19T00:21:21;6.30;;;4.03;;
74243;SDS011;62600;55.732;37.662;2022-08-19T00:23:46;6.75;;;4.07;;
74243;SDS011;62600;55.732;37.662;2022-08-19T00:26:13;7.22;;;4.18;;
74243;SDS011;62600;55.732;37.662;2022-08-19T00:28:38;6.13;;;4.40;;
74243;SDS011;62600;55.732;37.662;2022-08-19T00:31:05;6.65;;;4.30;;
74243;SDS011;62600;55.732;37.662;2022-08-19T00:33:32;10.80;;;4.72;;
74243;SDS011;62600;55.732;37.662;2022-08-19T00:36:01;8.75;;;5.32;;
74243;SDS011;62600;55.732;37.662;2022-08-19T00:38:29;10.68;;;5.05;;
74243;SDS011;62600;55.732;37.662;2022-08-19T00:40:55;7.85;;;5.00;;
74243;SDS011;62600;55.732;37.662;2022-08-19T00:43:22;6.70;;;4.72;;
74243;SDS011;62600;55.732;37.662;2022-08-19T00:45:50;9.27;;;5.47;;
74243;SDS011;62600;55.732;37.662;2022-08-19T00:48:17;8.15;;;5.05;;
74243;SDS011;62600;55.732;37.662;2022-08-19T00:50:43;10.73;;;4.68;;
74243;SDS011;62600;55.732;37.662;2022-08-19T00:53:14;9.52;;;5.20;;
74243;SDS011;62600;55.732;37.662;2022-08-19T00:55:44;7.25;;;4.80;;
74243;SDS011;62600;55.732;37.662;2022-08-19T00:58:14;7.15;;;4.18;;
74243;SDS011;62600;55.732;37.662;2022-08-19T01:00:42;8.20;;;4.72;;
74243;SDS011;62600;55.732;37.662;2022-08-19T01:03:09;6.95;;;4.72;;
74243;SDS011;62600;55.732;37.662;2022-08-19T01:05:37;8.85;;;5.10;;
74243;SDS011;62600;55.732;37.662;2022-08-19T01:08:05;10.95;;;5.10;;
74243;SDS011;62600;55.732;37.662;2022-08-19T01:10:32;9.75;;;5.00;;
74243;SDS011;62600;55.732;37.662;2022-08-19T01:13:02;10.60;;;5.30;;
74243;SDS011;62600;55.732;37.662;2022-08-19T01:15:30;8.20;;;4.75;;
74243;SDS011;62600;55.732;37.662;2022-08-19T01:18:04;9.23;;;4.82;;
74243;SDS011;62600;55.732;37.662;2022-08-19T01:20:32;8.70;;;5.15;;
74243;SDS011;62600;55.732;37.662;2022-08-19T01:22:59;7.80;;;4.95;;
74243;SDS011;62600;55.732;37.662;2022-08-19T01:25:38;9.98;;;4.95;;
74243;SDS011;62600;55.732;37.662;2022-08-19T01:28:06;7.38;;;4.45;;
74243;SDS011;62600;55.732;37.662;2022-08-19T01:30:33;9.65;;;5.03;;
74243;SDS011;62600;55.732;37.662;2022-08-19T01:33:00;10.02;;;5.55;;
74243;SDS011;62600;55.732;37.662;2022-08-19T01:35:27;7.32;;;4.68;;
74243;SDS011;62600;55.732;37.662;2022-08-19T01:37:56;11.73;;;5.72;;
74243;SDS011;62600;55.732;37.662;2022-08-19T01:40:26;11.93;;;6.07;;
74243;SDS011;62600;55.732;37.662;2022-08-19T01:42:54;10.77;;;5.60;;
74243;SDS011;62600;55.732;37.662;2022-08-19T01:45:20;7.75;;;5.03;;
74243;SDS011;62600;55.732;37.662;2022-08-19T01:47:47;10.00;;;5.40;;
74243;SDS011;62600;55.732;37.662;2022-08-19T01:50:13;9.75;;;5.50;;
74243;SDS011;62600;55.732;37.662;2022-08-19T01:52:39;9.13;;;5.18;;
74243;SDS011;62600;55.732;37.662;2022-08-19T01:55:07;12.13;;;5.32;;
74243;SDS011;62600;55.732;37.662;2022-08-19T01:57:36;13.10;;;5.90;;
74243;SDS011;62600;55.732;37.662;2022-08-19T02:00:05;10.32;;;5.45;;
74243;SDS011;62600;55.732;37.662;2022-08-19T02:02:33;11.55;;;5.25;;
74243;SDS011;62600;55.732;37.662;2022-08-19T02:04:59;8.07;;;5.35;;
74243;SDS011;62600;55.732;37.662;2022-08-19T02:07:24;9.32;;;5.68;;
74243;SDS011;62600;55.732;37.662;2022-08-19T02:09:50;16.40;;;5.95;;
74243;SDS011;62600;55.732;37.662;2022-08-19T02:12:15;9.18;;;5.70;;
74243;SDS011;62600;55.732;37.662;2022-08-19T02:14:41;9.15;;;5.65;;
74243;SDS011;62600;55.732;37.662;2022-08-19T02:17:07;8.15;;;5.32;;
74243;SDS011;62600;55.732;37.662;2022-08-19T02:19:32;14.00;;;5.70;;
74243;SDS011;62600;55.732;37.662;2022-08-19T02:21:58;7.50;;;5.15;;
74243;SDS011;62600;55.732;37.662;2022-08-19T02:24:25;11.38;;;5.50;;
74243;SDS011;62600;55.732;37.662;2022-08-19T02:26:51;11.52;;;5.63;;
74243;SDS011;62600;55.732;37.662;2022-08-19T02:29:16;10.38;;;5.82;;
74243;SDS011;62600;55.732;37.662;2022-08-19T02:31:42;10.73;;;5.63;;
74243;SDS011;62600;55.732;37.662;2022-08-19T02:34:07;12.15;;;5.80;;
74243;SDS011;62600;55.732;37.662;2022-08-19T02:36:33;10.00;;;5.38;;
74243;SDS011;62600;55.732;37.662;2022-08-19T02:38:59;10.27;;;5.50;;
74243;SDS011;62600;55.732;37.662;2022-08-19T02:41:26;9.70;;;5.28;;
74243;SDS011;62600;55.732;37.662;2022-08-19T02:43:58;8.07;;;5.57;;
74243;SDS011;62600;55.732;37.662;2022-08-19T02:46:27;14.50;;;5.60;;
74243;SDS011;62600;55.732;37.662;2022-08-19T02:48:55;8.02;;;5.05;;
74243;SDS011;62600;55.732;37.662;2022-08-19T02:51:25;13.25;;;5.20;;
74243;SDS011;62600;55.732;37.662;2022-08-19T02:53:54;11.63;;;5.28;;
74243;SDS011;62600;55.732;37.662;2022-08-19T02:56:20;10.43;;;5.25;;
74243;SDS011;62600;55.732;37.662;2022-08-19T02:58:46;7.88;;;5.18;;
74243;SDS011;62600;55.732;37.662;2022-08-19T03:01:19;9.15;;;5.25;;
74243;SDS011;62600;55.732;37.662;2022-08-19T03:04:05;9.95;;;5.00;;
74243;SDS011;62600;55.732;37.662;2022-08-19T03:06:33;9.38;;;5.28;;
74243;SDS011;62600;55.732;37.662;2022-08-19T03:09:02;10.45;;;5.20;;
74243;SDS011;62600;55.732;37.662;2022-08-19T03:11:29;9.23;;;5.38;;
74243;SDS011;62600;55.732;37.662;2022-08-19T03:13:56;10.35;;;5.07;;
74243;SDS011;62600;55.732;37.662;2022-08-19T03:16:24;8.43;;;5.35;;
74243;SDS011;62600;55.732;37.662;2022-08-19T03:18:51;8.88;;;5.03;;
74243;SDS011;62600;55.732;37.662;2022-08-19T03:23:45;8.30;;;4.65;;
74243;SDS011;62600;55.732;37.662;2022-08-19T03:26:11;8.48;;;4.93;;
74243;SDS011;62600;55.732;37.662;2022-08-19T03:28:37;7.50;;;4.00;;
74243;SDS011;62600;55.732;37.662;2022-08-19T03:31:04;8.13;;;5.03;;
74243;SDS011;62600;55.732;37.662;2022-08-19T03:33:38;12.75;;;5.45;;
74243;SDS011;62600;55.732;37.662;2022-08-19T03:38:34;9.50;;;5.00;;
74243;SDS011;62600;55.732;37.662;2022-08-19T03:41:09;10.50;;;4.80;;
74243;SDS011;62600;55.732;37.662;2022-08-19T03:43:39;11.77;;;5.18;;
74243;SDS011;62600;55.732;37.662;2022-08-19T03:46:07;9.45;;;5.22;;
74243;SDS011;62600;55.732;37.662;2022-08-19T03:48:39;8.63;;;5.88;;
74243;SDS011;62600;55.732;37.662;2022-08-19T03:51:06;8.13;;;5.18;;
74243;SDS011;62600;55.732;37.662;2022-08-19T03:53:33;9.23;;;4.55;;
74243;SDS011;62600;55.732;37.662;2022-08-19T03:56:00;9.32;;;5.55;;
74243;SDS011;62600;55.732;37.662;2022-08-19T03:58:27;12.73;;;5.63;;
74243;SDS011;62600;55.732;37.662;2022-08-19T04:00:57;10.00;;;4.85;;
74243;SDS011;62600;55.732;37.662;2022-08-19T04:03:26;10.55;;;6.10;;
74243;SDS011;62600;55.732;37.662;2022-08-19T04:05:52;9.80;;;6.07;;
74243;SDS011;62600;55.732;37.662;2022-08-19T04:10:46;10.25;;;5.53;;
74243;SDS011;62600;55.732;37.662;2022-08-19T04:13:13;9.40;;;5.47;;
74243;SDS011;62600;55.732;37.662;2022-08-19T04:15:43;10.45;;;5.68;;
74243;SDS011;62600;55.732;37.662;2022-08-19T04:18:11;11.38;;;5.95;;
74243;SDS011;62600;55.732;37.662;2022-08-19T04:20:41;13.38;;;5.80;;
74243;SDS011;62600;55.732;37.662;2022-08-19T04:23:09;7.90;;;5.30;;
74243;SDS011;62600;55.732;37.662;2022-08-19T04:25:36;11.45;;;6.18;;
74243;SDS011;62600;55.732;37.662;2022-08-19T04:28:06;9.82;;;5.60;;
74243;SDS011;62600;55.732;37.662;2022-08-19T04:30:38;8.93;;;6.10;;
74243;SDS011;62600;55.732;37.662;2022-08-19T04:33:09;12.18;;;5.55;;
74243;SDS011;62600;55.732;37.662;2022-08-19T04:35:39;7.93;;;5.78;;
74243;SDS011;62600;55.732;37.662;2022-08-19T04:38:06;7.95;;;5.10;;
74243;SDS011;62600;55.732;37.662;2022-08-19T04:40:32;9.20;;;5.35;;
74243;SDS011;62600;55.732;37.662;2022-08-19T04:43:17;8.38;;;5.25;;
74243;SDS011;62600;55.732;37.662;2022-08-19T04:45:43;11.57;;;5.45;;
74243;SDS011;62600;55.732;37.662;2022-08-19T04:50:35;10.68;;;5.35;;
74243;SDS011;62600;55.732;37.662;2022-08-19T04:53:00;10.18;;;5.70;;
74243;SDS011;62600;55.732;37.662;2022-08-19T04:55:26;10.77;;;5.00;;
74243;SDS011;62600;55.732;37.662;2022-08-19T04:57:51;11.27;;;5.55;;
74243;SDS011;62600;55.732;37.662;2022-08-19T05:00:17;11.73;;;4.82;;
74243;SDS011;62600;55.732;37.662;2022-08-19T05:02:42;9.82;;;5.75;;
74243;SDS011;62600;55.732;37.662;2022-08-19T05:05:08;6.82;;;5.15;;
74243;SDS011;62600;55.732;37.662;2022-08-19T05:07:34;9.68;;;4.65;;
74243;SDS011;62600;55.732;37.662;2022-08-19T05:09:59;8.00;;;4.45;;
74243;SDS011;62600;55.732;37.662;2022-08-19T05:12:25;9.35;;;5.40;;
74243;SDS011;62600;55.732;37.662;2022-08-19T05:14:53;9.38;;;4.97;;
74243;SDS011;62600;55.732;37.662;2022-08-19T05:17:19;12.02;;;5.30;;
74243;SDS011;62600;55.732;37.662;2022-08-19T05:19:44;8.13;;;4.78;;
74243;SDS011;62600;55.732;37.662;2022-08-19T05:22:29;8.13;;;5.10;;
74243;SDS011;62600;55.732;37.662;2022-08-19T05:24:59;9.73;;;4.50;;
74243;SDS011;62600;55.732;37.662;2022-08-19T05:27:27;9.20;;;4.53;;
74243;SDS011;62600;55.732;37.662;2022-08-19T05:29:53;10.40;;;4.93;;
74243;SDS011;62600;55.732;37.662;2022-08-19T05:32:18;7.95;;;4.72;;
74243;SDS011;62600;55.732;37.662;2022-08-19T05:34:44;10.32;;;5.13;;
74243;SDS011;62600;55.732;37.662;2022-08-19T05:37:09;8.98;;;4.85;;
74243;SDS011;62600;55.732;37.662;2022-08-19T05:39:36;10.20;;;4.97;;
74243;SDS011;62600;55.732;37.662;2022-08-19T05:42:03;7.57;;;4.47;;
74243;SDS011;62600;55.732;37.662;2022-08-19T05:44:35;9.93;;;5.10;;
74243;SDS011;62600;55.732;37.662;2022-08-19T05:47:04;7.22;;;4.63;;
74243;SDS011;62600;55.732;37.662;2022-08-19T05:49:31;9.27;;;4.82;;
74243;SDS011;62600;55.732;37.662;2022-08-19T05:51:58;9.80;;;5.07;;
74243;SDS011;62600;55.732;37.662;2022-08-19T05:54:24;8.23;;;4.72;;
74243;SDS011;62600;55.732;37.662;2022-08-19T05:56:51;9.95;;;4.13;;
74243;SDS011;62600;55.732;37.662;2022-08-19T05:59:17;9.75;;;5.10;;
74243;SDS011;62600;55.732;37.662;2022-08-19T06:01:44;9.13;;;4.60;;
74243;SDS011;62600;55.732;37.662;2022-08-19T06:04:11;9.13;;;4.70;;
74243;SDS011;62600;55.732;37.662;2022-08-19T06:06:38;9.32;;;4.63;;
74243;SDS011;62600;55.732;37.662;2022-08-19T06:09:05;8.35;;;4.38;;
74243;SDS011;62600;55.732;37.662;2022-08-19T06:14:04;8.68;;;4.97;;
74243;SDS011;62600;55.732;37.662;2022-08-19T06:16:35;8.63;;;4.68;;
74243;SDS011;62600;55.732;37.662;2022-08-19T06:19:04;6.63;;;4.30;;
74243;SDS011;62600;55.732;37.662;2022-08-19T06:21:31;8.18;;;4.30;;
74243;SDS011;62600;55.732;37.662;2022-08-19T06:23:58;8.07;;;4.55;;
74243;SDS011;62600;55.732;37.662;2022-08-19T06:26:24;6.05;;;4.70;;
74243;SDS011;62600;55.732;37.662;2022-08-19T06:28:49;9.52;;;5.10;;
74243;SDS011;62600;55.732;37.662;2022-08-19T06:31:20;10.52;;;4.88;;
74243;SDS011;62600;55.732;37.662;2022-08-19T06:33:50;7.80;;;4.85;;
74243;SDS011;62600;55.732;37.662;2022-08-19T06:36:24;11.50;;;5.20;;
74243;SDS011;62600;55.732;37.662;2022-08-19T06:38:58;7.07;;;4.70;;
74243;SDS011;62600;55.732;37.662;2022-08-19T06:41:29;9.40;;;5.13;;
74243;SDS011;62600;55.732;37.662;2022-08-19T06:43:55;7.03;;;5.10;;
74243;SDS011;62600;55.732;37.662;2022-08-19T06:46:21;7.85;;;4.90;;
74243;SDS011;62600;55.732;37.662;2022-08-19T06:48:47;7.03;;;4.57;;
74243;SDS011;62600;55.732;37.662;2022-08-19T06:51:14;9.88;;;4.85;;
74243;SDS011;62600;55.732;37.662;2022-08-19T06:53:43;8.60;;;4.50;;
74243;SDS011;62600;55.732;37.662;2022-08-19T06:56:16;8.13;;;4.47;;
74243;SDS011;62600;55.732;37.662;2022-08-19T06:58:44;9.00;;;4.55;;
74243;SDS011;62600;55.732;37.662;2022-08-19T07:01:09;8.88;;;5.35;;
74243;SDS011;62600;55.732;37.662;2022-08-19T07:03:36;5.43;;;4.43;;
74243;SDS011;62600;55.732;37.662;2022-08-19T07:06:07;7.03;;;4.25;;
74243;SDS011;62600;55.732;37.662;2022-08-19T07:08:35;6.80;;;5.15;;
74243;SDS011;62600;55.732;37.662;2022-08-19T07:11:05;11.20;;;4.43;;
74243;SDS011;62600;55.732;37.662;2022-08-19T07:13:32;6.63;;;4.45;;
74243;SDS011;62600;55.732;37.662;2022-08-19T07:16:02;7.95;;;5.35;;
74243;SDS011;62600;55.732;37.662;2022-08-19T07:18:30;9.07;;;4.25;;
74243;SDS011;62600;55.732;37.662;2022-08-19T07:21:03;10.75;;;4.80;;
74243;SDS011;62600;55.732;37.662;2022-08-19T07:23:28;10.15;;;5.53;;
74243;SDS011;62600;55.732;37.662;2022-08-19T07:25:54;13.77;;;5.35;;
74243;SDS011;62600;55.732;37.662;2022-08-19T07:28:19;9.05;;;4.78;;
74243;SDS011;62600;55.732;37.662;2022-08-19T07:30:45;8.15;;;5.15;;
74243;SDS011;62600;55.732;37.662;2022-08-19T07:33:10;8.52;;;4.75;;
74243;SDS011;62600;55.732;37.662;2022-08-19T07:35:36;8.65;;;4.53;;
74243;SDS011;62600;55.732;37.662;2022-08-19T07:38:01;9.50;;;4.68;;
74243;SDS011;62600;55.732;37.662;2022-08-19T07:40:28;12.60;;;4.78;;
74243;SDS011;62600;55.732;37.662;2022-08-19T07:42:54;8.57;;;4.75;;
74243;SDS011;62600;55.732;37.662;2022-08-19T07:45:19;9.35;;;4.75;;
74243;SDS011;62600;55.732;37.662;2022-08-19T07:47:45;7.97;;;4.22;;
74243;SDS011;62600;55.732;37.662;2022-08-19T07:50:11;7.68;;;4.50;;
74243;SDS011;62600;55.732;37.662;2022-08-19T07:52:37;7.57;;;4.22;;
74243;SDS011;62600;55.732;37.662;2022-08-19T07:55:05;7.40;;;3.65;;
74243;SDS011;62600;55.732;37.662;2022-08-19T07:57:32;14.20;;;4.75;;
74243;SDS011;62600;55.732;37.662;2022-08-19T07:59:58;7.03;;;3.92;;
74243;SDS011;62600;55.732;37.662;2022-08-19T08:02:24;7.10;;;4.60;;
74243;SDS011;62600;55.732;37.662;2022-08-19T08:04:49;8.32;;;4.68;;
74243;SDS011;62600;55.732;37.662;2022-08-19T08:07:33;8.10;;;4.50;;
74243;SDS011;62600;55.732;37.662;2022-08-19T08:10:17;7.35;;;4.10;;
74243;SDS011;62600;55.732;37.662;2022-08-19T08:12:43;9.90;;;5.10;;
74243;SDS011;62600;55.732;37.662;2022-08-19T08:15:12;8.93;;;4.53;;
74243;SDS011;62600;55.732;37.662;2022-08-19T08:17:44;8.95;;;4.72;;
74243;SDS011;62600;55.732;37.662;2022-08-19T08:20:10;9.68;;;4.63;;
74243;SDS011;62600;55.732;37.662;2022-08-19T08:22:41;9.05;;;5.10;;
74243;SDS011;62600;55.732;37.662;2022-08-19T08:25:26;9.10;;;3.85;;
74243;SDS011;62600;55.732;37.662;2022-08-19T08:27:52;10.40;;;4.35;;
74243;SDS011;62600;55.732;37.662;2022-08-19T08:30:22;7.72;;;4.07;;
74243;SDS011;62600;55.732;37.662;2022-08-19T08:32:49;9.95;;;4.03;;
74243;SDS011;62600;55.732;37.662;2022-08-19T08:35:16;6.35;;;4.15;;
74243;SDS011;62600;55.732;37.662;2022-08-19T08:37:44;6.90;;;3.70;;
74243;SDS011;62600;55.732;37.662;2022-08-19T08:42:45;8.68;;;4.57;;
74243;SDS011;62600;55.732;37.662;2022-08-19T08:45:25;8.43;;;3.15;;
74243;SDS011;62600;55.732;37.662;2022-08-19T08:47:52;6.47;;;3.90;;
74243;SDS011;62600;55.732;37.662;2022-08-19T08:50:24;6.53;;;3.78;;
74243;SDS011;62600;55.732;37.662;2022-08-19T08:52:55;7.47;;;4.30;;
74243;SDS011;62600;55.732;37.662;2022-08-19T08:55:24;6.95;;;3.72;;
74243;SDS011;62600;55.732;37.662;2022-08-19T09:00:38;6.22;;;4.00;;
74243;SDS011;62600;55.732;37.662;2022-08-19T09:03:06;7.13;;;3.80;;
74243;SDS011;62600;55.732;37.662;2022-08-19T09:05:59;6.60;;;4.00;;
74243;SDS011;62600;55.732;37.662;2022-08-19T09:12:10;9.13;;;4.03;;
74243;SDS011;62600;55.732;37.662;2022-08-19T09:17:12;7.07;;;3.63;;
74243;SDS011;62600;55.732;37.662;2022-08-19T09:19:58;8.32;;;4.00;;
74243;SDS011;62600;55.732;37.662;2022-08-19T09:22:36;7.30;;;4.18;;
74243;SDS011;62600;55.732;37.662;2022-08-19T09:25:03;7.25;;;3.40;;
74243;SDS011;62600;55.732;37.662;2022-08-19T09:27:29;9.25;;;4.40;;
74243;SDS011;62600;55.732;37.662;2022-08-19T09:29:57;6.93;;;3.92;;
74243;SDS011;62600;55.732;37.662;2022-08-19T09:32:23;7.25;;;4.35;;
74243;SDS011;62600;55.732;37.662;2022-08-19T09:34:50;5.35;;;3.90;;
74243;SDS011;62600;55.732;37.662;2022-08-19T09:37:17;8.10;;;4.07;;
74243;SDS011;62600;55.732;37.662;2022-08-19T09:39:43;7.03;;;3.78;;
74243;SDS011;62600;55.732;37.662;2022-08-19T09:42:09;4.60;;;3.08;;
74243;SDS011;62600;55.732;37.662;2022-08-19T09:44:40;5.82;;;2.95;;
74243;SDS011;62600;55.732;37.662;2022-08-19T09:47:07;5.50;;;2.63;;
74243;SDS011;62600;55.732;37.662;2022-08-19T09:49:34;6.00;;;2.72;;
74243;SDS011;62600;55.732;37.662;2022-08-19T09:52:00;8.90;;;2.85;;
74243;SDS011;62600;55.732;37.662;2022-08-19T09:54:26;10.63;;;3.28;;
74243;SDS011;62600;55.732;37.662;2022-08-19T09:56:52;5.80;;;2.80;;
74243;SDS011;62600;55.732;37.662;2022-08-19T09:59:18;4.22;;;2.80;;
74243;SDS011;62600;55.732;37.662;2022-08-19T10:01:44;4.45;;;2.72;;
74243;SDS011;62600;55.732;37.662;2022-08-19T10:04:10;7.03;;;3.30;;
74243;SDS011;62600;55.732;37.662;2022-08-19T10:06:36;4.47;;;2.70;;
74243;SDS011;62600;55.732;37.662;2022-08-19T10:09:04;7.22;;;2.80;;
74243;SDS011;62600;55.732;37.662;2022-08-19T10:11:32;4.10;;;2.53;;
74243;SDS011;62600;55.732;37.662;2022-08-19T10:13:59;8.43;;;2.80;;
74243;SDS011;62600;55.732;37.662;2022-08-19T10:16:25;3.67;;;2.60;;
74243;SDS011;62600;55.732;37.662;2022-08-19T10:18:51;7.35;;;3.35;;
74243;SDS011;62600;55.732;37.662;2022-08-19T10:21:19;6.05;;;2.92;;
74243;SDS011;62600;55.732;37.662;2022-08-19T10:23:47;11.43;;;3.83;;
74243;SDS011;62600;55.732;37.662;2022-08-19T10:26:21;5.90;;;2.78;;
74243;SDS011;62600;55.732;37.662;2022-08-19T10:28:49;8.57;;;3.45;;
74243;SDS011;62600;55.732;37.662;2022-08-19T10:31:17;6.05;;;2.78;;
74243;SDS011;62600;55.732;37.662;2022-08-19T10:33:51;6.22;;;3.03;;
74243;SDS011;62600;55.732;37.662;2022-08-19T10:36:22;8.23;;;2.97;;
74243;SDS011;62600;55.732;37.662;2022-08-19T10:38:51;3.30;;;2.70;;
74243;SDS011;62600;55.732;37.662;2022-08-19T10:41:20;5.30;;;2.70;;
74243;SDS011;62600;55.732;37.662;2022-08-19T10:43:50;5.57;;;2.88;;
74243;SDS011;62600;55.732;37.662;2022-08-19T10:46:17;5.45;;;2.58;;
74243;SDS011;62600;55.732;37.662;2022-08-19T10:48:43;5.35;;;2.38;;
74243;SDS011;62600;55.732;37.662;2022-08-19T10:51:09;2.92;;;2.30;;
74243;SDS011;62600;55.732;37.662;2022-08-19T10:53:54;5.07;;;2.45;;
74243;SDS011;62600;55.732;37.662;2022-08-19T10:56:20;5.30;;;2.88;;
74243;SDS011;62600;55.732;37.662;2022-08-19T10:59:05;5.80;;;2.97;;
74243;SDS011;62600;55.732;37.662;2022-08-19T11:01:31;7.43;;;3.20;;
74243;SDS011;62600;55.732;37.662;2022-08-19T11:03:59;6.50;;;2.40;;
74243;SDS011;62600;55.732;37.662;2022-08-19T11:06:26;5.10;;;2.28;;
74243;SDS011;62600;55.732;37.662;2022-08-19T11:08:53;7.50;;;2.97;;
74243;SDS011;62600;55.732;37.662;2022-08-19T11:11:19;5.00;;;3.17;;
74243;SDS011;62600;55.732;37.662;2022-08-19T11:13:48;4.38;;;2.65;;
74243;SDS011;62600;55.732;37.662;2022-08-19T11:16:21;9.18;;;2.95;;
74243;SDS011;62600;55.732;37.662;2022-08-19T11:18:52;7.10;;;2.78;;
74243;SDS011;62600;55.732;37.662;2022-08-19T11:21:24;6.05;;;2.80;;
74243;SDS011;62600;55.732;37.662;2022-08-19T11:23:53;6.20;;;2.67;;
74243;SDS011;62600;55.732;37.662;2022-08-19T11:26:21;4.47;;;2.78;;
74243;SDS011;62600;55.732;37.662;2022-08-19T11:28:48;7.70;;;2.83;;
74243;SDS011;62600;55.732;37.662;2022-08-19T11:31:18;6.10;;;2.95;;
74243;SDS011;62600;55.732;37.662;2022-08-19T11:33:46;4.38;;;2.70;;
74243;SDS011;62600;55.732;37.662;2022-08-19T11:36:15;6.82;;;2.45;;
74243;SDS011;62600;55.732;37.662;2022-08-19T11:38:41;6.47;;;3.15;;
74243;SDS011;62600;55.732;37.662;2022-08-19T11:41:07;4.75;;;2.58;;
74243;SDS011;62600;55.732;37.662;2022-08-19T11:43:34;5.57;;;2.75;;
74243;SDS011;62600;55.732;37.662;2022-08-19T11:46:02;4.82;;;2.50;;
74243;SDS011;62600;55.732;37.662;2022-08-19T11:48:29;4.03;;;2.60;;
74243;SDS011;62600;55.732;37.662;2022-08-19T11:50:54;5.50;;;2.92;;
74243;SDS011;62600;55.732;37.662;2022-08-19T11:53:21;5.00;;;2.60;;
74243;SDS011;62600;55.732;37.662;2022-08-19T11:55:47;3.85;;;2.90;;
74243;SDS011;62600;55.732;37.662;2022-08-19T11:58:14;3.05;;;2.53;;
74243;SDS011;62600;55.732;37.662;2022-08-19T12:00:42;4.47;;;2.90;;
74243;SDS011;62600;55.732;37.662;2022-08-19T12:03:10;3.55;;;2.90;;
74243;SDS011;62600;55.732;37.662;2022-08-19T12:05:37;5.80;;;3.55;;
74243;SDS011;62600;55.732;37.662;2022-08-19T12:08:04;6.60;;;3.00;;
74243;SDS011;62600;55.732;37.662;2022-08-19T12:10:30;6.07;;;3.15;;
74243;SDS011;62600;55.732;37.662;2022-08-19T12:12:57;5.57;;;2.95;;
74243;SDS011;62600;55.732;37.662;2022-08-19T12:15:22;5.30;;;3.67;;
74243;SDS011;62600;55.732;37.662;2022-08-19T12:17:48;6.97;;;2.92;;
74243;SDS011;62600;55.732;37.662;2022-08-19T12:20:13;6.63;;;3.50;;
74243;SDS011;62600;55.732;37.662;2022-08-19T12:22:40;6.10;;;2.92;;
74243;SDS011;62600;55.732;37.662;2022-08-19T12:25:09;5.25;;;2.97;;
74243;SDS011;62600;55.732;37.662;2022-08-19T12:27:36;4.15;;;2.90;;
74243;SDS011;62600;55.732;37.662;2022-08-19T12:30:02;6.25;;;3.22;;
74243;SDS011;62600;55.732;37.662;2022-08-19T12:32:29;4.53;;;3.45;;
74243;SDS011;62600;55.732;37.662;2022-08-19T12:34:54;3.63;;;2.72;;
74243;SDS011;62600;55.732;37.662;2022-08-19T12:37:20;6.93;;;2.97;;
74243;SDS011;62600;55.732;37.662;2022-08-19T12:39:46;5.65;;;3.35;;
74243;SDS011;62600;55.732;37.662;2022-08-19T12:42:12;4.70;;;3.50;;
74243;SDS011;62600;55.732;37.662;2022-08-19T12:44:39;6.75;;;3.17;;
74243;SDS011;62600;55.732;37.662;2022-08-19T12:47:07;4.40;;;2.60;;
74243;SDS011;62600;55.732;37.662;2022-08-19T12:49:34;7.03;;;3.35;;
74243;SDS011;62600;55.732;37.662;2022-08-19T12:52:02;8.10;;;3.58;;
74243;SDS011;62600;55.732;37.662;2022-08-19T12:54:29;6.95;;;3.28;;
74243;SDS011;62600;55.732;37.662;2022-08-19T12:56:55;5.28;;;2.90;;
74243;SDS011;62600;55.732;37.662;2022-08-19T12:59:21;5.97;;;3.17;;
74243;SDS011;62600;55.732;37.662;2022-08-19T13:01:47;8.13;;;3.55;;
74243;SDS011;62600;55.732;37.662;2022-08-19T13:04:12;8.43;;;4.00;;
74243;SDS011;62600;55.732;37.662;2022-08-19T13:06:38;4.85;;;2.90;;
74243;SDS011;62600;55.732;37.662;2022-08-19T13:09:04;5.15;;;3.00;;
74243;SDS011;62600;55.732;37.662;2022-08-19T13:11:30;5.82;;;3.63;;
74243;SDS011;62600;55.732;37.662;2022-08-19T13:14:00;8.20;;;3.80;;
74243;SDS011;62600;55.732;37.662;2022-08-19T13:16:27;5.35;;;3.55;;
74243;SDS011;62600;55.732;37.662;2022-08-19T13:18:53;6.13;;;3.50;;
74243;SDS011;62600;55.732;37.662;2022-08-19T13:21:21;6.00;;;3.70;;
74243;SDS011;62600;55.732;37.662;2022-08-19T13:23:49;5.75;;;3.40;;
74243;SDS011;62600;55.732;37.662;2022-08-19T13:28:41;7.85;;;3.53;;
74243;SDS011;62600;55.732;37.662;2022-08-19T13:31:27;7.35;;;3.30;;
74243;SDS011;62600;55.732;37.662;2022-08-19T13:34:13;5.95;;;3.30;;
74243;SDS011;62600;55.732;37.662;2022-08-19T13:36:40;11.25;;;4.43;;
74243;SDS011;62600;55.732;37.662;2022-08-19T13:39:06;8.77;;;3.22;;
74243;SDS011;62600;55.732;37.662;2022-08-19T13:41:33;7.50;;;3.53;;
74243;SDS011;62600;55.732;37.662;2022-08-19T13:43:59;7.75;;;3.53;;
74243;SDS011;62600;55.732;37.662;2022-08-19T13:46:24;8.73;;;3.30;;
74243;SDS011;62600;55.732;37.662;2022-08-19T13:48:50;10.50;;;3.47;;
74243;SDS011;62600;55.732;37.662;2022-08-19T13:51:17;6.38;;;3.72;;
74243;SDS011;62600;55.732;37.662;2022-08-19T13:53:43;7.18;;;3.65;;
74243;SDS011;62600;55.732;37.662;2022-08-19T13:56:11;4.97;;;3.30;;
74243;SDS011;62600;55.732;37.662;2022-08-19T13:58:38;7.38;;;3.58;;
74243;SDS011;62600;55.732;37.662;2022-08-19T14:01:04;7.15;;;3.80;;
74243;SDS011;62600;55.732;37.662;2022-08-19T14:05:57;6.35;;;3.47;;
74243;SDS011;62600;55.732;37.662;2022-08-19T14:08:23;6.93;;;3.80;;
74243;SDS011;62600;55.732;37.662;2022-08-19T14:10:49;7.50;;;4.20;;
74243;SDS011;62600;55.732;37.662;2022-08-19T14:13:16;8.60;;;4.10;;
74243;SDS011;62600;55.732;37.662;2022-08-19T14:15:44;8.23;;;4.05;;
74243;SDS011;62600;55.732;37.662;2022-08-19T14:18:10;9.85;;;4.03;;
74243;SDS011;62600;55.732;37.662;2022-08-19T14:20:36;8.70;;;4.22;;
74243;SDS011;62600;55.732;37.662;2022-08-19T14:23:02;6.40;;;4.30;;
74243;SDS011;62600;55.732;37.662;2022-08-19T14:25:30;6.78;;;4.70;;
74243;SDS011;62600;55.732;37.662;2022-08-19T14:27:56;6.35;;;5.20;;
74243;SDS011;62600;55.732;37.662;2022-08-19T14:30:26;9.68;;;5.55;;
74243;SDS011;62600;55.732;37.662;2022-08-19T14:32:58;11.00;;;5.82;;
74243;SDS011;62600;55.732;37.662;2022-08-19T14:35:25;8.68;;;6.05;;
74243;SDS011;62600;55.732;37.662;2022-08-19T14:37:51;9.05;;;6.40;;
74243;SDS011;62600;55.732;37.662;2022-08-19T14:40:20;9.38;;;6.82;;
74243;SDS011;62600;55.732;37.662;2022-08-19T14:42:50;9.02;;;7.55;;
74243;SDS011;62600;55.732;37.662;2022-08-19T14:45:29;11.15;;;8.40;;
74243;SDS011;62600;55.732;37.662;2022-08-19T14:47:56;13.23;;;8.23;;
74243;SDS011;62600;55.732;37.662;2022-08-19T14:50:21;11.77;;;8.20;;
74243;SDS011;62600;55.732;37.662;2022-08-19T14:52:48;11.30;;;7.55;;
74243;SDS011;62600;55.732;37.662;2022-08-19T14:57:40;10.13;;;6.78;;
74243;SDS011;62600;55.732;37.662;2022-08-19T15:00:07;11.55;;;7.75;;
74243;SDS011;62600;55.732;37.662;2022-08-19T15:02:37;14.00;;;8.82;;
74243;SDS011;62600;55.732;37.662;2022-08-19T15:05:03;9.43;;;8.45;;
74243;SDS011;62600;55.732;37.662;2022-08-19T15:07:29;11.25;;;7.93;;